Time;durP1;ratioP1;P1;durP2;ratioP2;P2;SDS_P1;SDS_P2;PMS_P1;PMS_P2;Temp;Humidity;BMP_temperature;BMP_pressure;BME280_temperature;BME280_humidity;BME280_pressure;Samples;Min_cycle;Max_cycle;Signal;HPM_P1;HPM_P2
2022/02/26 00:01:27;;;;;;;10.57;4.90;;;;;;;;;;5071398;28;20674;-89
2022/02/26 00:03:55;;;;;;;13.40;5.10;;;;;;;;;;5069728;28;20205;-79
2022/02/26 00:06:23;;;;;;;21.30;5.88;;;;;;;;;;5069536;28;20564;-82
2022/02/26 00:08:50;;;;;;;7.90;5.45;;;;;;;;;;5071509;28;20335;-83
2022/02/26 00:11:17;;;;;;;20.92;7.13;;;;;;;;;;5054119;28;20554;-80
2022/02/26 00:13:45;;;;;;;17.33;5.93;;;;;;;;;;5069066;28;20198;-82
2022/02/26 00:16:12;;;;;;;12.68;6.07;;;;;;;;;;5067964;28;20213;-81
2022/02/26 00:18:39;;;;;;;19.98;7.43;;;;;;;;;;5070307;28;20218;-87
2022/02/26 00:21:06;;;;;;;18.92;9.35;;;;;;;;;;5069636;28;20204;-80
2022/02/26 00:23:35;;;;;;;21.52;9.05;;;;;;;;;;5070392;28;20206;-82
2022/02/26 00:26:02;;;;;;;18.95;9.15;;;;;;;;;;5070953;28;20222;-88
2022/02/26 00:28:29;;;;;;;17.60;8.13;;;;;;;;;;5066506;28;20209;-80
2022/02/26 00:30:57;;;;;;;22.10;7.32;;;;;;;;;;5063919;28;20205;-81
2022/02/26 00:33:24;;;;;;;21.10;8.55;;;;;;;;;;5068816;28;20289;-83
2022/02/26 00:35:51;;;;;;;18.98;9.00;;;;;;;;;;5070309;28;20222;-82
2022/02/26 00:38:18;;;;;;;18.50;9.10;;;;;;;;;;5069833;28;20222;-83
2022/02/26 00:40:47;;;;;;;18.30;8.02;;;;;;;;;;5055008;28;20198;-83
2022/02/26 00:43:14;;;;;;;20.85;7.70;;;;;;;;;;5051552;28;20198;-82
2022/02/26 00:45:41;;;;;;;19.33;6.85;;;;;;;;;;5064213;28;20709;-87
2022/02/26 00:48:11;;;;;;;15.45;6.32;;;;;;;;;;5068000;28;20651;-84
2022/02/26 00:50:38;;;;;;;10.20;4.88;;;;;;;;;;5065790;28;20296;-81
2022/02/26 00:53:05;;;;;;;21.65;6.07;;;;;;;;;;5068886;28;20190;-84
2022/02/26 00:55:32;;;;;;;16.73;5.68;;;;;;;;;;5058630;28;20233;-82
2022/02/26 00:58:02;;;;;;;13.57;5.80;;;;;;;;;;5062867;28;20308;-81
2022/02/26 01:00:32;;;;;;;17.27;6.30;;;;;;;;;;5070960;28;20202;-83
2022/02/26 01:02:59;;;;;;;17.55;6.47;;;;;;;;;;5063627;28;20557;-85
2022/02/26 01:05:26;;;;;;;14.25;6.30;;;;;;;;;;5066205;28;20228;-84
2022/02/26 01:07:53;;;;;;;16.63;7.30;;;;;;;;;;5067884;28;20189;-84
2022/02/26 01:10:20;;;;;;;17.25;5.90;;;;;;;;;;5069668;28;20654;-87
2022/02/26 01:12:47;;;;;;;15.18;6.60;;;;;;;;;;5068983;28;20204;-82
2022/02/26 01:15:16;;;;;;;13.88;6.80;;;;;;;;;;5069254;28;20229;-84
2022/02/26 01:17:43;;;;;;;19.08;6.50;;;;;;;;;;5070141;28;20209;-83
2022/02/26 01:20:11;;;;;;;15.32;6.30;;;;;;;;;;5057079;28;20213;-84
2022/02/26 01:22:38;;;;;;;18.05;6.35;;;;;;;;;;5064802;28;20206;-83
2022/02/26 01:25:07;;;;;;;26.73;6.50;;;;;;;;;;5065744;28;20236;-80
2022/02/26 01:27:34;;;;;;;21.52;6.53;;;;;;;;;;5069601;28;20201;-85
2022/02/26 01:30:01;;;;;;;23.92;7.32;;;;;;;;;;5067777;28;20276;-83
2022/02/26 01:32:30;;;;;;;20.60;8.48;;;;;;;;;;5049906;28;20213;-82
2022/02/26 01:34:57;;;;;;;12.43;6.30;;;;;;;;;;5050187;28;20215;-81
2022/02/26 01:37:24;;;;;;;17.00;7.63;;;;;;;;;;5049744;28;20203;-81
2022/02/26 01:39:51;;;;;;;14.50;6.93;;;;;;;;;;5063089;28;20218;-81
2022/02/26 01:42:21;;;;;;;14.70;6.72;;;;;;;;;;5064273;28;20217;-84
2022/02/26 01:44:49;;;;;;;13.20;6.35;;;;;;;;;;5079637;28;20217;-81
2022/02/26 01:47:16;;;;;;;14.60;5.57;;;;;;;;;;5066892;28;20209;-79
2022/02/26 01:49:45;;;;;;;16.42;5.30;;;;;;;;;;5067559;28;20195;-79
2022/02/26 01:52:13;;;;;;;19.20;5.65;;;;;;;;;;5069963;28;20221;-83
2022/02/26 01:54:40;;;;;;;12.45;5.05;;;;;;;;;;5062966;28;20214;-80
2022/02/26 01:57:07;;;;;;;10.75;5.38;;;;;;;;;;5067862;28;20202;-84
2022/02/26 01:59:36;;;;;;;21.88;6.78;;;;;;;;;;5063518;28;20222;-81
2022/02/26 02:02:03;;;;;;;15.85;6.10;;;;;;;;;;5068170;28;20204;-81
2022/02/26 02:04:30;;;;;;;13.77;5.53;;;;;;;;;;5072467;28;20218;-83
2022/02/26 02:06:59;;;;;;;20.05;6.28;;;;;;;;;;5069936;28;20201;-86
2022/02/26 02:09:26;;;;;;;11.80;5.43;;;;;;;;;;5061340;28;20198;-84
2022/02/26 02:11:54;;;;;;;17.38;5.95;;;;;;;;;;5051049;28;20206;-83
2022/02/26 02:14:21;;;;;;;18.42;5.63;;;;;;;;;;5069854;28;20593;-81
2022/02/26 02:16:48;;;;;;;13.98;6.32;;;;;;;;;;5067608;28;20577;-82
2022/02/26 02:19:16;;;;;;;22.05;6.75;;;;;;;;;;5063982;28;20237;-83
2022/02/26 02:21:43;;;;;;;12.38;5.80;;;;;;;;;;5072278;28;20666;-80
2022/02/26 02:24:11;;;;;;;18.55;6.03;;;;;;;;;;5071752;28;20226;-85
2022/02/26 02:26:39;;;;;;;19.48;6.60;;;;;;;;;;5071203;28;20201;-78
2022/02/26 02:29:06;;;;;;;16.23;5.65;;;;;;;;;;5058775;28;20636;-82
2022/02/26 02:31:33;;;;;;;11.65;5.20;;;;;;;;;;5061140;28;20200;-85
2022/02/26 02:34:01;;;;;;;12.40;5.22;;;;;;;;;;5070064;28;20263;-83
2022/02/26 02:36:28;;;;;;;18.45;7.32;;;;;;;;;;5064318;28;20216;-82
2022/02/26 02:38:55;;;;;;;19.63;6.10;;;;;;;;;;5063642;28;20256;-82
2022/02/26 02:41:24;;;;;;;16.13;5.97;;;;;;;;;;5072318;28;20194;-82
2022/02/26 02:43:51;;;;;;;13.25;6.15;;;;;;;;;;5069151;28;20194;-80
2022/02/26 02:46:19;;;;;;;13.40;5.65;;;;;;;;;;5070476;28;20194;-80
2022/02/26 02:48:46;;;;;;;10.82;5.95;;;;;;;;;;5064371;28;20206;-82
2022/02/26 02:51:13;;;;;;;11.60;5.30;;;;;;;;;;5065879;28;20198;-82
2022/02/26 02:53:40;;;;;;;11.55;5.18;;;;;;;;;;5067215;28;20197;-78
2022/02/26 02:56:07;;;;;;;15.52;6.03;;;;;;;;;;5068297;28;20206;-83
2022/02/26 02:58:36;;;;;;;21.65;5.70;;;;;;;;;;5070268;28;20222;-80
2022/02/26 03:01:03;;;;;;;23.85;6.00;;;;;;;;;;5072148;28;20187;-83
2022/02/26 03:03:30;;;;;;;13.88;5.95;;;;;;;;;;5062907;28;20190;-83
2022/02/26 03:05:57;;;;;;;11.98;6.03;;;;;;;;;;5056976;28;20847;-85
2022/02/26 03:08:25;;;;;;;20.20;7.10;;;;;;;;;;5065952;28;20656;-84
2022/02/26 03:10:52;;;;;;;13.18;6.28;;;;;;;;;;5068495;28;20202;-82
2022/02/26 03:13:21;;;;;;;16.55;5.43;;;;;;;;;;5050007;28;20845;-84
2022/02/26 03:15:50;;;;;;;11.07;5.53;;;;;;;;;;5052874;28;20219;-85
2022/02/26 03:18:17;;;;;;;18.10;7.05;;;;;;;;;;5065019;28;20209;-86
2022/02/26 03:20:44;;;;;;;11.52;5.60;;;;;;;;;;5052625;28;20198;-83
2022/02/26 03:23:12;;;;;;;16.67;6.18;;;;;;;;;;5053270;28;20648;-82
2022/02/26 03:25:39;;;;;;;12.95;5.82;;;;;;;;;;5057684;28;20237;-82
2022/02/26 03:28:06;;;;;;;18.20;7.50;;;;;;;;;;5070946;28;20198;-81
2022/02/26 03:30:34;;;;;;;12.10;5.57;;;;;;;;;;5067694;28;20202;-82
2022/02/26 03:33:02;;;;;;;19.38;6.22;;;;;;;;;;5057238;28;20726;-84
2022/02/26 03:35:29;;;;;;;14.60;5.40;;;;;;;;;;5050304;28;20219;-82
2022/02/26 03:37:57;;;;;;;13.85;6.30;;;;;;;;;;5049949;28;20196;-82
2022/02/26 03:40:24;;;;;;;16.38;6.72;;;;;;;;;;5051340;28;20218;-81
2022/02/26 03:42:51;;;;;;;24.95;6.35;;;;;;;;;;5049957;28;20194;-80
2022/02/26 03:45:18;;;;;;;15.60;7.05;;;;;;;;;;5057667;28;20225;-83
2022/02/26 03:47:45;;;;;;;12.95;6.75;;;;;;;;;;5067941;28;20674;-79
2022/02/26 03:50:14;;;;;;;15.80;7.10;;;;;;;;;;5070267;28;20194;-80
2022/02/26 03:52:41;;;;;;;17.45;6.60;;;;;;;;;;5052557;28;20713;-82
2022/02/26 03:55:09;;;;;;;12.95;6.22;;;;;;;;;;5060379;28;20217;-79
2022/02/26 03:57:36;;;;;;;16.25;5.75;;;;;;;;;;5051320;28;20198;-81
2022/02/26 04:00:05;;;;;;;16.50;6.95;;;;;;;;;;5059719;28;20225;-83
2022/02/26 04:02:33;;;;;;;14.52;7.20;;;;;;;;;;5054298;28;20217;-88
2022/02/26 04:05:00;;;;;;;13.38;7.30;;;;;;;;;;5051029;28;20215;-83
2022/02/26 04:07:28;;;;;;;17.48;6.50;;;;;;;;;;5056529;28;20198;-87
2022/02/26 04:09:55;;;;;;;18.30;6.97;;;;;;;;;;5067653;28;20194;-84
2022/02/26 04:12:23;;;;;;;18.77;6.57;;;;;;;;;;5069494;28;20697;-81
2022/02/26 04:14:50;;;;;;;14.93;7.47;;;;;;;;;;5065834;28;20217;-83
2022/02/26 04:17:17;;;;;;;15.63;6.95;;;;;;;;;;5055225;28;20191;-82
2022/02/26 04:19:46;;;;;;;13.30;7.55;;;;;;;;;;5066949;28;20217;-81
2022/02/26 04:22:14;;;;;;;16.75;7.53;;;;;;;;;;5069444;28;20224;-80
2022/02/26 04:24:43;;;;;;;19.08;7.25;;;;;;;;;;5069798;28;20248;-82
2022/02/26 04:27:10;;;;;;;15.95;7.65;;;;;;;;;;5071028;28;20213;-77
2022/02/26 04:29:37;;;;;;;14.70;6.97;;;;;;;;;;5070932;28;20205;-77
2022/02/26 04:32:05;;;;;;;29.55;8.18;;;;;;;;;;5066778;28;20194;-78
2022/02/26 04:34:32;;;;;;;19.50;7.75;;;;;;;;;;5060585;28;20706;-78
2022/02/26 04:36:59;;;;;;;18.85;8.13;;;;;;;;;;5062219;28;20227;-78
2022/02/26 04:39:26;;;;;;;17.13;7.72;;;;;;;;;;5069321;28;20221;-77
2022/02/26 04:41:55;;;;;;;19.48;9.10;;;;;;;;;;5054397;28;20203;-78
2022/02/26 04:44:22;;;;;;;27.08;8.38;;;;;;;;;;5068797;28;20221;-78
2022/02/26 04:46:50;;;;;;;15.50;8.68;;;;;;;;;;5058769;28;20209;-79
2022/02/26 04:49:17;;;;;;;19.20;8.93;;;;;;;;;;5063921;28;20202;-78
2022/02/26 04:51:44;;;;;;;17.83;7.80;;;;;;;;;;5066775;28;20567;-77
2022/02/26 04:54:13;;;;;;;22.58;7.68;;;;;;;;;;5069333;28;20202;-80
2022/02/26 04:56:40;;;;;;;19.40;8.27;;;;;;;;;;5057979;28;20576;-77
2022/02/26 04:59:08;;;;;;;18.38;8.40;;;;;;;;;;5062664;28;20216;-81
2022/02/26 05:01:35;;;;;;;14.32;8.52;;;;;;;;;;5070004;28;20198;-79
2022/02/26 05:04:03;;;;;;;18.42;8.35;;;;;;;;;;5069925;28;20212;-78
2022/02/26 05:06:30;;;;;;;22.45;9.10;;;;;;;;;;5061552;28;20563;-77
2022/02/26 05:08:57;;;;;;;23.10;9.70;;;;;;;;;;5065429;28;20198;-78
2022/02/26 05:11:24;;;;;;;18.52;10.20;;;;;;;;;;5068420;28;20198;-79
2022/02/26 05:13:51;;;;;;;21.30;9.05;;;;;;;;;;5064026;28;20262;-77
2022/02/26 05:16:20;;;;;;;28.50;9.05;;;;;;;;;;5049993;28;20194;-79
2022/02/26 05:18:47;;;;;;;22.48;9.55;;;;;;;;;;5048674;28;20398;-80
2022/02/26 05:21:14;;;;;;;22.60;9.35;;;;;;;;;;5051633;28;20870;-79
2022/02/26 05:23:42;;;;;;;16.50;8.23;;;;;;;;;;5058679;28;20200;-78
2022/02/26 05:26:09;;;;;;;24.08;8.98;;;;;;;;;;5065044;28;20209;-80
2022/02/26 05:28:36;;;;;;;14.20;8.40;;;;;;;;;;5065382;28;20216;-78
2022/02/26 05:31:04;;;;;;;29.95;9.23;;;;;;;;;;5049734;28;20198;-78
2022/02/26 05:33:32;;;;;;;20.48;9.07;;;;;;;;;;5051299;28;20241;-81
2022/02/26 05:35:59;;;;;;;17.80;8.57;;;;;;;;;;5052547;28;20210;-80
2022/02/26 05:38:26;;;;;;;14.48;9.65;;;;;;;;;;5050633;28;20564;-77
2022/02/26 05:40:54;;;;;;;13.57;8.30;;;;;;;;;;5056027;28;20233;-78
2022/02/26 05:43:21;;;;;;;14.60;8.10;;;;;;;;;;5065268;28;20709;-80
2022/02/26 05:45:48;;;;;;;21.77;10.20;;;;;;;;;;5070616;28;20224;-78
2022/02/26 05:48:15;;;;;;;15.93;9.73;;;;;;;;;;5072231;28;20208;-78
2022/02/26 05:50:44;;;;;;;19.10;10.23;;;;;;;;;;5072991;28;20838;-81
2022/02/26 05:53:11;;;;;;;23.83;11.48;;;;;;;;;;5071139;28;20198;-78
2022/02/26 05:55:38;;;;;;;21.35;11.70;;;;;;;;;;5066428;28;20214;-77
2022/02/26 05:58:05;;;;;;;33.10;11.48;;;;;;;;;;5068014;28;20205;-79
2022/02/26 06:00:32;;;;;;;21.05;12.80;;;;;;;;;;5067939;28;20610;-77
2022/02/26 06:02:59;;;;;;;21.77;10.95;;;;;;;;;;5071153;28;20198;-78
2022/02/26 06:05:27;;;;;;;17.27;11.40;;;;;;;;;;5057487;28;20582;-79
2022/02/26 06:07:55;;;;;;;23.58;11.45;;;;;;;;;;5051982;28;20559;-78
2022/02/26 06:10:22;;;;;;;17.80;10.18;;;;;;;;;;5051559;28;20195;-78
2022/02/26 06:12:50;;;;;;;16.02;9.85;;;;;;;;;;5053618;28;20198;-79
2022/02/26 06:15:17;;;;;;;16.42;9.40;;;;;;;;;;5054548;28;20224;-78
2022/02/26 06:17:44;;;;;;;18.08;9.10;;;;;;;;;;5066960;28;20642;-77
2022/02/26 06:20:12;;;;;;;17.90;10.55;;;;;;;;;;5069656;28;20225;-77
2022/02/26 06:22:39;;;;;;;18.98;10.43;;;;;;;;;;5072531;28;20212;-78
2022/02/26 06:25:09;;;;;;;22.88;11.13;;;;;;;;;;5060003;28;20222;-78
2022/02/26 06:27:37;;;;;;;27.88;12.25;;;;;;;;;;5053035;28;20202;-80
2022/02/26 06:30:04;;;;;;;17.33;11.18;;;;;;;;;;5051296;28;20195;-77
2022/02/26 06:32:31;;;;;;;18.35;11.73;;;;;;;;;;5059351;28;20201;-77
2022/02/26 06:34:58;;;;;;;20.63;10.63;;;;;;;;;;5070832;28;20259;-78
2022/02/26 06:37:26;;;;;;;23.35;12.73;;;;;;;;;;5069343;28;20201;-78
2022/02/26 06:39:53;;;;;;;27.33;13.80;;;;;;;;;;5070433;28;20209;-78
2022/02/26 06:42:21;;;;;;;24.25;12.98;;;;;;;;;;5056709;28;20195;-77
2022/02/26 06:44:48;;;;;;;24.25;13.93;;;;;;;;;;5053392;28;20218;-78
2022/02/26 06:47:16;;;;;;;30.83;15.43;;;;;;;;;;5052201;28;20209;-79
2022/02/26 06:49:43;;;;;;;37.10;17.48;;;;;;;;;;5051593;28;20538;-78
2022/02/26 06:52:10;;;;;;;28.52;13.40;;;;;;;;;;5070825;28;20692;-80
2022/02/26 06:54:37;;;;;;;23.25;10.50;;;;;;;;;;5070301;28;20213;-79
2022/02/26 06:57:05;;;;;;;21.02;9.57;;;;;;;;;;5068048;28;20486;-80
2022/02/26 06:59:33;;;;;;;22.42;11.07;;;;;;;;;;5055174;28;20210;-80
2022/02/26 07:02:01;;;;;;;14.73;8.60;;;;;;;;;;5050852;28;20199;-78
2022/02/26 07:04:29;;;;;;;16.55;8.93;;;;;;;;;;5052420;28;20326;-79
2022/02/26 07:06:56;;;;;;;20.38;9.27;;;;;;;;;;5052394;28;20523;-80
2022/02/26 07:09:23;;;;;;;17.52;9.70;;;;;;;;;;5051817;28;20556;-78
2022/02/26 07:11:51;;;;;;;18.77;9.48;;;;;;;;;;5064237;28;20625;-77
2022/02/26 07:14:18;;;;;;;14.50;8.65;;;;;;;;;;5071715;28;20217;-78
2022/02/26 07:16:47;;;;;;;14.13;8.95;;;;;;;;;;5069285;28;20194;-77
2022/02/26 07:19:15;;;;;;;16.70;9.55;;;;;;;;;;5067727;28;20685;-78
2022/02/26 07:21:43;;;;;;;28.58;11.05;;;;;;;;;;5064009;28;20234;-78
2022/02/26 07:24:10;;;;;;;25.38;9.35;;;;;;;;;;5050931;28;20211;-78
2022/02/26 07:26:38;;;;;;;10.63;7.20;;;;;;;;;;5062732;28;20186;-80
2022/02/26 07:29:05;;;;;;;14.93;8.95;;;;;;;;;;5055895;28;20194;-78
2022/02/26 07:31:32;;;;;;;22.05;9.52;;;;;;;;;;5070560;28;20556;-83
2022/02/26 07:34:01;;;;;;;18.73;10.27;;;;;;;;;;5070483;28;20551;-80
2022/02/26 07:36:28;;;;;;;21.85;11.40;;;;;;;;;;5054450;28;20194;-80
2022/02/26 07:38:55;;;;;;;23.30;11.48;;;;;;;;;;5064533;28;20651;-79
2022/02/26 07:41:22;;;;;;;23.17;11.40;;;;;;;;;;5067666;28;20229;-79
2022/02/26 07:43:49;;;;;;;25.85;11.40;;;;;;;;;;5063297;28;20195;-79
2022/02/26 07:46:17;;;;;;;20.63;11.88;;;;;;;;;;5051015;28;20218;-76
2022/02/26 07:48:44;;;;;;;23.67;13.38;;;;;;;;;;5051364;28;20642;-76
2022/02/26 07:51:12;;;;;;;33.80;13.68;;;;;;;;;;5062446;28;20197;-80
2022/02/26 07:53:40;;;;;;;25.38;13.35;;;;;;;;;;5060101;28;20687;-80
2022/02/26 07:56:07;;;;;;;27.83;12.77;;;;;;;;;;5062763;28;20213;-80
2022/02/26 07:58:34;;;;;;;26.20;14.77;;;;;;;;;;5069117;28;20189;-81
2022/02/26 08:01:01;;;;;;;28.80;13.25;;;;;;;;;;5063980;28;20303;-81
2022/02/26 08:03:28;;;;;;;20.15;12.20;;;;;;;;;;5062292;28;20198;-79
2022/02/26 08:05:55;;;;;;;28.15;12.80;;;;;;;;;;5065378;28;20220;-80
2022/02/26 08:08:24;;;;;;;25.88;14.93;;;;;;;;;;5070544;28;20551;-79
2022/02/26 08:10:51;;;;;;;35.25;15.82;;;;;;;;;;5055437;28;20690;-84
2022/02/26 08:13:18;;;;;;;26.48;14.82;;;;;;;;;;5064048;28;20205;-80
2022/02/26 08:15:45;;;;;;;26.45;14.68;;;;;;;;;;5066294;28;20701;-81
2022/02/26 08:18:13;;;;;;;25.77;14.00;;;;;;;;;;5052459;28;20204;-81
2022/02/26 08:20:40;;;;;;;29.63;14.10;;;;;;;;;;5052165;28;20215;-82
2022/02/26 08:23:07;;;;;;;29.15;15.10;;;;;;;;;;5067795;28;20592;-81
2022/02/26 08:25:36;;;;;;;25.35;13.43;;;;;;;;;;5055680;28;20250;-79
2022/02/26 08:28:03;;;;;;;26.13;14.05;;;;;;;;;;5052332;28;20198;-81
2022/02/26 08:30:30;;;;;;;31.42;16.80;;;;;;;;;;5065665;28;20185;-81
2022/02/26 08:32:58;;;;;;;37.35;17.83;;;;;;;;;;5064628;28;20285;-82
2022/02/26 08:35:26;;;;;;;34.50;17.67;;;;;;;;;;5067545;28;20214;-79
2022/02/26 08:37:53;;;;;;;29.73;16.90;;;;;;;;;;5082112;28;20221;-81
2022/02/26 08:40:20;;;;;;;33.90;18.63;;;;;;;;;;5070680;28;20217;-82
2022/02/26 08:42:49;;;;;;;29.58;16.48;;;;;;;;;;5069692;28;20198;-82
2022/02/26 08:45:16;;;;;;;29.95;15.70;;;;;;;;;;5067870;28;20612;-82
2022/02/26 08:47:43;;;;;;;28.10;17.30;;;;;;;;;;5065024;28;20906;-82
2022/02/26 08:50:13;;;;;;;29.92;15.77;;;;;;;;;;5067951;28;20182;-82
2022/02/26 08:52:40;;;;;;;25.17;13.88;;;;;;;;;;5064119;28;20194;-81
2022/02/26 08:55:08;;;;;;;37.97;16.48;;;;;;;;;;5058820;28;20206;-82
2022/02/26 08:57:35;;;;;;;30.83;15.20;;;;;;;;;;5050928;28;20198;-81
2022/02/26 09:00:05;;;;;;;26.00;14.95;;;;;;;;;;5065678;28;20195;-81
2022/02/26 09:02:32;;;;;;;28.25;15.35;;;;;;;;;;5060922;28;20289;-80
2022/02/26 09:04:59;;;;;;;33.80;16.30;;;;;;;;;;5063228;28;20213;-80
2022/02/26 09:07:27;;;;;;;28.42;14.52;;;;;;;;;;5062282;28;20206;-79
2022/02/26 09:09:54;;;;;;;32.42;14.95;;;;;;;;;;5048730;28;20217;-78
2022/02/26 09:12:22;;;;;;;33.10;17.85;;;;;;;;;;5064443;28;20640;-79
2022/02/26 09:14:49;;;;;;;32.35;16.60;;;;;;;;;;5069944;28;20220;-79
2022/02/26 09:17:17;;;;;;;30.97;16.50;;;;;;;;;;5068695;28;20204;-80
2022/02/26 09:19:44;;;;;;;31.30;17.08;;;;;;;;;;5069594;28;20470;-78
2022/02/26 09:22:12;;;;;;;24.23;14.80;;;;;;;;;;5072033;28;20217;-78
2022/02/26 09:24:39;;;;;;;35.73;15.30;;;;;;;;;;5072325;28;20277;-79
2022/02/26 09:27:06;;;;;;;26.63;16.23;;;;;;;;;;5056870;28;20457;-80
2022/02/26 09:29:34;;;;;;;24.60;14.98;;;;;;;;;;5065781;28;20436;-80
2022/02/26 09:32:04;;;;;;;26.02;14.40;;;;;;;;;;5072268;28;20194;-78
2022/02/26 09:34:32;;;;;;;31.13;15.07;;;;;;;;;;5073639;28;20209;-79
2022/02/26 09:36:59;;;;;;;38.05;17.25;;;;;;;;;;5074068;28;20206;-78
2022/02/26 09:39:27;;;;;;;32.00;16.55;;;;;;;;;;5075764;28;20198;-79
2022/02/26 09:41:55;;;;;;;32.83;16.07;;;;;;;;;;5072194;28;20572;-75
2022/02/26 09:44:22;;;;;;;31.30;17.63;;;;;;;;;;5071536;28;20459;-77
2022/02/26 09:46:50;;;;;;;39.92;17.90;;;;;;;;;;5071954;28;20205;-76
2022/02/26 09:49:17;;;;;;;36.95;16.80;;;;;;;;;;5058371;28;20193;-77
2022/02/26 09:51:47;;;;;;;36.83;18.30;;;;;;;;;;5070608;28;20194;-76
2022/02/26 09:54:16;;;;;;;40.95;17.15;;;;;;;;;;5073133;28;20209;-81
2022/02/26 09:56:43;;;;;;;34.55;16.88;;;;;;;;;;5073311;28;20204;-81
2022/02/26 09:59:11;;;;;;;37.00;15.90;;;;;;;;;;5071013;28;20666;-79
2022/02/26 10:01:53;;;;;;;42.15;17.17;;;;;;;;;;5053986;28;20280;-82
2022/02/26 10:04:20;;;;;;;36.40;16.13;;;;;;;;;;5062927;28;20576;-78
2022/02/26 10:06:48;;;;;;;39.35;18.25;;;;;;;;;;5071462;28;20205;-76
2022/02/26 10:09:16;;;;;;;26.35;13.70;;;;;;;;;;5068280;28;20288;-77
2022/02/26 10:11:43;;;;;;;24.92;14.30;;;;;;;;;;5070434;28;20643;-78
2022/02/26 10:14:12;;;;;;;37.13;16.95;;;;;;;;;;5072476;28;20198;-76
2022/02/26 10:16:47;;;;;;;28.48;16.67;;;;;;;;;;5066421;28;20194;-77
2022/02/26 10:19:19;;;;;;;28.45;13.15;;;;;;;;;;5068938;28;20736;-76
2022/02/26 10:21:47;;;;;;;30.63;15.02;;;;;;;;;;5071880;28;20221;-76
2022/02/26 10:24:16;;;;;;;34.58;15.45;;;;;;;;;;5069731;28;20237;-76
2022/02/26 10:26:52;;;;;;;26.60;13.13;;;;;;;;;;5069685;28;20206;-75
2022/02/26 10:29:21;;;;;;;23.92;12.63;;;;;;;;;;5070661;28;20301;-80
2022/02/26 10:31:49;;;;;;;26.27;14.43;;;;;;;;;;5052181;28;20666;-80
2022/02/26 10:34:31;;;;;;;33.47;16.65;;;;;;;;;;5066539;28;20475;-76
2022/02/26 10:37:00;;;;;;;30.43;16.40;;;;;;;;;;5063339;28;20247;-76
2022/02/26 10:39:29;;;;;;;33.97;15.10;;;;;;;;;;5071611;28;20940;-77
2022/02/26 10:41:56;;;;;;;32.88;14.98;;;;;;;;;;5069231;28;20218;-77
2022/02/26 10:44:24;;;;;;;30.85;14.20;;;;;;;;;;5054204;28;20218;-78
2022/02/26 10:46:51;;;;;;;23.30;13.45;;;;;;;;;;5052185;28;20206;-76
2022/02/26 10:49:19;;;;;;;27.98;15.02;;;;;;;;;;5052012;28;20214;-77
2022/02/26 10:51:49;;;;;;;24.70;11.23;;;;;;;;;;5057550;28;20189;-77
2022/02/26 10:54:18;;;;;;;35.25;14.10;;;;;;;;;;5065867;28;20687;-77
2022/02/26 10:56:47;;;;;;;22.55;12.15;;;;;;;;;;5066426;28;20194;-77
2022/02/26 10:59:27;;;;;;;24.63;14.23;;;;;;;;;;5068971;28;20194;-78
2022/02/26 11:01:59;;;;;;;34.35;15.82;;;;;;;;;;5050676;28;20759;-78
2022/02/26 11:04:26;;;;;;;32.30;14.77;;;;;;;;;;5066760;28;20225;-77
2022/02/26 11:06:53;;;;;;;28.15;12.45;;;;;;;;;;5052079;28;20209;-78
2022/02/26 11:09:22;;;;;;;24.48;12.77;;;;;;;;;;5052327;28;20205;-81
2022/02/26 11:11:51;;;;;;;28.63;14.18;;;;;;;;;;5051241;28;20298;-77
2022/02/26 11:14:20;;;;;;;24.42;12.98;;;;;;;;;;5067683;28;20310;-79
2022/02/26 11:16:48;;;;;;;20.88;11.38;;;;;;;;;;5069859;28;20202;-77
2022/02/26 11:19:16;;;;;;;26.67;12.25;;;;;;;;;;5063545;28;20217;-77
2022/02/26 11:21:43;;;;;;;20.80;10.80;;;;;;;;;;5065277;28;20214;-77
2022/02/26 11:24:11;;;;;;;24.65;10.68;;;;;;;;;;5051301;28;20234;-77
2022/02/26 11:26:38;;;;;;;21.70;10.73;;;;;;;;;;5050333;28;20187;-77
2022/02/26 11:29:07;;;;;;;28.77;11.85;;;;;;;;;;5050239;28;20210;-77
2022/02/26 11:31:36;;;;;;;26.30;11.73;;;;;;;;;;5056296;28;21126;-77
2022/02/26 11:34:03;;;;;;;22.52;11.32;;;;;;;;;;5068351;28;20234;-77
2022/02/26 11:36:46;;;;;;;23.67;9.90;;;;;;;;;;5065433;28;20207;-77
2022/02/26 11:39:21;;;;;;;19.63;8.85;;;;;;;;;;5051203;28;20234;-76
2022/02/26 11:41:48;;;;;;;21.17;8.82;;;;;;;;;;5052651;28;20221;-77
2022/02/26 11:44:37;;;;;;;19.58;7.93;;;;;;;;;;5058289;28;20209;-77
2022/02/26 11:47:12;;;;;;;13.20;6.07;;;;;;;;;;5069411;28;20834;-78
2022/02/26 11:49:40;;;;;;;18.35;8.52;;;;;;;;;;5059740;28;20716;-78
2022/02/26 11:52:16;;;;;;;21.88;7.50;;;;;;;;;;5068273;28;20307;-77
2022/02/26 11:54:43;;;;;;;18.35;6.25;;;;;;;;;;5064713;28;20224;-77
2022/02/26 11:57:11;;;;;;;15.48;6.28;;;;;;;;;;5068736;28;20205;-77
2022/02/26 11:59:41;;;;;;;13.15;5.63;;;;;;;;;;5068438;28;20659;-77
2022/02/26 12:02:09;;;;;;;13.70;4.88;;;;;;;;;;5068268;28;20218;-77
2022/02/26 12:04:44;;;;;;;16.60;4.90;;;;;;;;;;5067816;28;20221;-77
2022/02/26 12:07:11;;;;;;;13.85;6.15;;;;;;;;;;5065086;28;20193;-79
2022/02/26 12:09:53;;;;;;;16.17;5.35;;;;;;;;;;5051224;28;20199;-76
2022/02/26 12:12:35;;;;;;;9.02;4.97;;;;;;;;;;5055038;28;20201;-77
2022/02/26 12:15:04;;;;;;;10.40;4.10;;;;;;;;;;5065246;28;20226;-79
2022/02/26 12:17:31;;;;;;;11.20;4.93;;;;;;;;;;5067932;28;20643;-78
2022/02/26 12:19:59;;;;;;;8.77;5.72;;;;;;;;;;5059955;28;20574;-77
2022/02/26 12:22:34;;;;;;;21.17;6.82;;;;;;;;;;5050720;28;20226;-77
2022/02/26 12:25:11;;;;;;;13.38;5.55;;;;;;;;;;5050441;28;20316;-80
2022/02/26 12:27:38;;;;;;;15.50;6.53;;;;;;;;;;5068814;28;20198;-79
2022/02/26 12:30:10;;;;;;;13.25;5.53;;;;;;;;;;5062959;28;20193;-81
2022/02/26 12:32:53;;;;;;;8.68;5.10;;;;;;;;;;5051600;28;20243;-79
2022/02/26 12:35:20;;;;;;;12.52;5.45;;;;;;;;;;5058133;28;20227;-80
2022/02/26 12:37:48;;;;;;;18.00;5.70;;;;;;;;;;5067673;28;20202;-80
2022/02/26 12:40:16;;;;;;;15.27;5.15;;;;;;;;;;5068392;28;20548;-81
2022/02/26 12:42:44;;;;;;;10.80;4.50;;;;;;;;;;5052026;28;20225;-80
2022/02/26 12:45:14;;;;;;;13.18;4.97;;;;;;;;;;5048927;28;20279;-78
2022/02/26 12:47:42;;;;;;;17.08;5.55;;;;;;;;;;5070286;28;20190;-78
2022/02/26 12:50:11;;;;;;;8.73;3.88;;;;;;;;;;5070260;28;20224;-78
2022/02/26 12:52:39;;;;;;;12.48;4.05;;;;;;;;;;5064478;28;20925;-81
2022/02/26 12:55:08;;;;;;;10.88;3.72;;;;;;;;;;5065559;28;20297;-81
2022/02/26 12:57:36;;;;;;;11.93;4.80;;;;;;;;;;5057593;28;20200;-76
2022/02/26 13:00:03;;;;;;;10.85;4.40;;;;;;;;;;5066538;28;20228;-75
2022/02/26 13:02:31;;;;;;;12.68;4.47;;;;;;;;;;5046571;28;20311;-76
2022/02/26 13:05:02;;;;;;;8.68;3.85;;;;;;;;;;5049071;28;20217;-77
2022/02/26 13:07:30;;;;;;;15.07;5.00;;;;;;;;;;5067096;28;20202;-77
2022/02/26 13:09:58;;;;;;;16.42;5.20;;;;;;;;;;5060547;28;20186;-77
2022/02/26 13:12:26;;;;;;;10.60;4.50;;;;;;;;;;5062569;28;20205;-76
2022/02/26 13:14:54;;;;;;;9.40;3.90;;;;;;;;;;5064692;28;20232;-76
2022/02/26 13:17:22;;;;;;;13.43;4.18;;;;;;;;;;5066595;28;20204;-76
2022/02/26 13:19:50;;;;;;;11.57;4.47;;;;;;;;;;5063998;28;20198;-76
2022/02/26 13:22:17;;;;;;;11.02;4.00;;;;;;;;;;5067107;28;20217;-78
2022/02/26 13:24:45;;;;;;;12.32;4.00;;;;;;;;;;5060936;28;20237;-77
2022/02/26 13:27:13;;;;;;;11.25;4.28;;;;;;;;;;5048404;28;20517;-77
2022/02/26 13:29:42;;;;;;;9.05;3.22;;;;;;;;;;5047551;28;20198;-77
2022/02/26 13:32:14;;;;;;;9.38;3.90;;;;;;;;;;5058141;28;20202;-78
2022/02/26 13:34:41;;;;;;;8.70;3.60;;;;;;;;;;5060422;28;20210;-77
2022/02/26 13:37:10;;;;;;;10.77;3.67;;;;;;;;;;5065863;28;20601;-77
2022/02/26 13:39:43;;;;;;;9.75;3.40;;;;;;;;;;5065731;28;20198;-76
2022/02/26 13:42:11;;;;;;;10.70;4.05;;;;;;;;;;5066502;28;20244;-76
2022/02/26 13:44:39;;;;;;;13.27;3.63;;;;;;;;;;5065590;28;20714;-76
2022/02/26 13:47:08;;;;;;;11.38;3.97;;;;;;;;;;5066436;28;20186;-77
2022/02/26 13:49:36;;;;;;;12.70;3.90;;;;;;;;;;5067434;28;20574;-76
2022/02/26 13:52:07;;;;;;;17.23;4.45;;;;;;;;;;5067130;28;20209;-76
2022/02/26 13:54:37;;;;;;;13.00;4.50;;;;;;;;;;5048259;28;20225;-76
2022/02/26 13:57:07;;;;;;;11.55;3.10;;;;;;;;;;5054677;28;20203;-77
2022/02/26 13:59:34;;;;;;;10.00;3.80;;;;;;;;;;5048532;28;20214;-76
2022/02/26 14:02:01;;;;;;;14.10;4.32;;;;;;;;;;5052170;28;20778;-77
2022/02/26 14:04:29;;;;;;;7.22;3.35;;;;;;;;;;5060103;28;20223;-77
2022/02/26 14:06:56;;;;;;;11.63;3.70;;;;;;;;;;5051493;28;20224;-76
2022/02/26 14:09:24;;;;;;;8.68;3.70;;;;;;;;;;5052343;28;20198;-77
2022/02/26 14:11:54;;;;;;;9.68;4.20;;;;;;;;;;5063882;28;20201;-77
2022/02/26 14:14:26;;;;;;;15.20;4.00;;;;;;;;;;5064615;28;20748;-75
2022/02/26 14:16:57;;;;;;;10.10;3.70;;;;;;;;;;5068477;28;20621;-76
2022/02/26 14:19:24;;;;;;;4.10;2.90;;;;;;;;;;5048985;28;20201;-75
2022/02/26 14:21:51;;;;;;;7.75;3.95;;;;;;;;;;5049651;28;20198;-75
2022/02/26 14:24:18;;;;;;;12.23;3.30;;;;;;;;;;5049797;28;20823;-76
2022/02/26 14:26:49;;;;;;;7.00;3.15;;;;;;;;;;5052339;28;20284;-77
2022/02/26 14:29:27;;;;;;;10.93;3.97;;;;;;;;;;5067199;28;20225;-75
2022/02/26 14:31:58;;;;;;;11.25;3.17;;;;;;;;;;5066020;28;20314;-77